Ship Status Report: callsign BP3015

sailwx.info

Track history (hours):
 
Tides and Currents Weather Stations Pressure Air Temp Water Temp Dewpoint Dewpoint Depression Visibility Wind Speed Wind Dir Waves Ship Positions

Oceanographic research ship ()

Last reported at 2019-Apr-18 20:00 UTC. Time now 2019-Apr-18 20:19 UTC.
Position N 25°09' E 121°47'.

Length 39 m; draft 2.8 m.

Type: Pleasure craft. MMSI: 416922000.

Date/timePositionNaut miles runAvg speedWind from/ knotsBaromVisibWave heightAir tempDewpointWater temp
2019-Apr-18 20:00N 25°09' E 121°47'0 0.0
2019-Apr-18 19:30N 25°09' E 121°47'0 0.0
2019-Apr-18 19:00N 25°09' E 121°47'0 0.0
2019-Apr-18 18:30N 25°09' E 121°47'0 0.0
2019-Apr-18 18:00N 25°09' E 121°47'0 0.0
2019-Apr-18 17:30N 25°09' E 121°47'0 0.0
2019-Apr-18 17:00N 25°09' E 121°47'0 0.0
2019-Apr-18 16:30N 25°09' E 121°47'0 0.0
2019-Apr-18 16:00N 25°09' E 121°47'0 0.0
2019-Apr-18 15:30N 25°09' E 121°47'0 0.0
2019-Apr-18 15:00N 25°09' E 121°47'0 0.0
2019-Apr-18 14:30N 25°09' E 121°47'0 0.0
2019-Apr-18 14:00N 25°09' E 121°47'0 0.0
2019-Apr-18 13:27N 25°09' E 121°47'0 0.0
2019-Apr-18 12:57N 25°09' E 121°47'0 0.0
2019-Apr-18 12:30N 25°09' E 121°47'0 0.0
2019-Apr-18 12:00N 25°09' E 121°47'0 0.0
2019-Apr-18 11:30N 25°09' E 121°47'0 0.0
2019-Apr-18 10:58N 25°09' E 121°47'0 0.0
2019-Apr-18 10:30N 25°09' E 121°47'0 0.0
2019-Apr-18 10:00N 25°09' E 121°47'0 0.0
2019-Apr-18 09:30N 25°09' E 121°47'0 0.0
2019-Apr-18 09:00N 25°09' E 121°47'0 0.0
2019-Apr-18 08:30N 25°09' E 121°47'0 0.0
2019-Apr-18 07:47N 25°09' E 121°47'0 0.0
2019-Apr-18 07:30N 25°09' E 121°47'0 0.0
2019-Apr-18 06:59N 25°09' E 121°47'0 0.0
2019-Apr-18 06:30N 25°09' E 121°47'3 6.8
2019-Apr-18 06:00N 25°12' E 121°45'918.1
2019-Apr-18 05:29N 25°18' E 121°38'15 4.9
2019-Apr-18 02:25N 25°13' E 121°23'4 1.2
2019-Apr-17 23:34N 25°10' E 121°21'1 4.7
2019-Apr-17 23:26N 25°10' E 121°21'1 0.8
2019-Apr-17 22:38N 25°10' E 121°21'1 1.3
2019-Apr-17 21:53N 25°10' E 121°22'3 1.2
2019-Apr-17 19:22N 25°13' E 121°22'1 1.5
2019-Apr-17 18:42N 25°13' E 121°23'3 5.6
2019-Apr-17 18:07N 25°15' E 121°25'1 7.6
2019-Apr-17 17:57N 25°16' E 121°26'3 7.0
2019-Apr-17 17:30N 25°19' E 121°29'3 5.5
2019-Apr-17 16:57N 25°20' E 121°32'5 5.3
2019-Apr-17 15:59N 25°19' E 121°37'4 6.2
2019-Apr-17 15:24N 25°17' E 121°40'3 7.5
2019-Apr-17 14:57N 25°15' E 121°43'3 7.8
2019-Apr-17 14:30N 25°12' E 121°45'3 6.8
2019-Apr-17 14:01N 25°09' E 121°47'0 0.1
2019-Apr-17 13:30N 25°09' E 121°47'0 0.0
2019-Apr-17 13:00N 25°09' E 121°47'0 0.0
2019-Apr-17 12:30N 25°09' E 121°47'0 0.0
2019-Apr-17 12:00N 25°09' E 121°47'0 0.0
2019-Apr-17 11:30N 25°09' E 121°47'0 0.0
2019-Apr-17 11:00N 25°09' E 121°47'0 0.0
2019-Apr-17 10:30N 25°09' E 121°47'0 0.0
2019-Apr-17 10:00N 25°09' E 121°47'0 0.0
2019-Apr-17 09:30N 25°09' E 121°47'0 0.0
2019-Apr-17 09:00N 25°09' E 121°47'0 0.0
2019-Apr-17 08:30N 25°09' E 121°47'0 0.0
2019-Apr-17 08:00N 25°09' E 121°47'0 0.0
2019-Apr-17 07:30N 25°09' E 121°47'0 0.0
2019-Apr-17 07:00N 25°09' E 121°47'0 0.0
2019-Apr-17 06:30N 25°09' E 121°47'0 0.0
2019-Apr-17 06:00N 25°09' E 121°47'1 2.3
2019-Apr-17 05:30N 25°09' E 121°48'4 8.2
2019-Apr-17 05:00N 25°09' E 121°53'4 6.5
2019-Apr-17 04:24N 25°08' E 121°57'8 6.7
2019-Apr-17 03:10N 25°01' E 122°02'1 6.6
2019-Apr-17 03:00N 24°59' E 122°02'11 0.5
2019-Apr-16 05:36N 24°50' E 122°09'1 4.8
2019-Apr-16 05:25N 24°50' E 122°10'0 0.3
2019-Apr-16 04:02N 24°50' E 122°11'1 8.9
2019-Apr-16 03:57N 24°50' E 122°10'13 0.5
2019-Apr-15 02:16N 25°01' E 122°02'510.2
2019-Apr-15 01:46N 25°05' E 121°60'410.6
2019-Apr-15 01:26N 25°08' E 121°57'5 9.5
2019-Apr-15 00:54N 25°10' E 121°52'3 8.7
2019-Apr-15 00:31N 25°09' E 121°48'1 1.4
2019-Apr-15 00:00N 25°09' E 121°47'0 0.0
2019-Apr-14 23:30N 25°09' E 121°47'0 0.0
2019-Apr-14 23:00N 25°09' E 121°47'0 0.0
2019-Apr-14 22:30N 25°09' E 121°47'0 0.0
2019-Apr-14 22:00N 25°09' E 121°47'0 0.0
2019-Apr-14 21:30N 25°09' E 121°47'0 0.0
2019-Apr-14 21:00N 25°09' E 121°47'0 0.0
2019-Apr-14 20:30N 25°09' E 121°47'0 0.0
2019-Apr-14 20:00N 25°09' E 121°47'0 0.0
2019-Apr-14 19:30N 25°09' E 121°47'0 0.0
2019-Apr-14 19:00N 25°09' E 121°47'0 0.0
2019-Apr-14 18:30N 25°09' E 121°47'0 0.0
2019-Apr-14 18:00N 25°09' E 121°47'0 0.0
2019-Apr-14 17:30N 25°09' E 121°47'0 0.0
2019-Apr-14 17:00N 25°09' E 121°47'0 0.0
2019-Apr-14 16:28N 25°09' E 121°47'0 0.0
2019-Apr-14 16:00N 25°09' E 121°47'0 0.0
2019-Apr-14 15:30N 25°09' E 121°47'0 0.0
2019-Apr-14 15:00N 25°09' E 121°47'0 0.0
2019-Apr-14 14:30N 25°09' E 121°47'0 0.0
2019-Apr-14 14:00N 25°09' E 121°47'0 0.0
2019-Apr-14 13:30N 25°09' E 121°47'0 0.0
2019-Apr-14 13:00N 25°09' E 121°47'0 0.0
2019-Apr-14 12:30N 25°09' E 121°47'0 0.0
2019-Apr-14 11:59N 25°09' E 121°47'0 0.0
2019-Apr-14 11:30N 25°09' E 121°47'0 0.0
2019-Apr-14 11:00N 25°09' E 121°47'0 0.0
2019-Apr-14 10:30N 25°09' E 121°47'0 0.0
2019-Apr-14 10:00N 25°09' E 121°47'0 0.0
2019-Apr-14 09:30N 25°09' E 121°47'0 0.0
2019-Apr-14 08:57N 25°09' E 121°47'0 0.0
2019-Apr-14 08:30N 25°09' E 121°47'0 0.0
2019-Apr-14 08:00N 25°09' E 121°47'0 0.0
2019-Apr-14 07:30N 25°09' E 121°47'0 0.0
2019-Apr-14 07:00N 25°09' E 121°47'0 0.0
2019-Apr-14 06:30N 25°09' E 121°47'0 0.0
2019-Apr-14 06:00N 25°09' E 121°47'0 0.0
2019-Apr-14 05:29N 25°09' E 121°47'0 0.0
2019-Apr-14 05:00N 25°09' E 121°47'0 0.0
2019-Apr-14 04:30N 25°09' E 121°47'0 0.0
2019-Apr-14 03:59N 25°09' E 121°47'0 0.0
2019-Apr-14 03:30N 25°09' E 121°47'0 0.0
2019-Apr-14 03:00N 25°09' E 121°47'0 0.0
2019-Apr-14 02:30N 25°09' E 121°47'0 0.0
2019-Apr-14 02:00N 25°09' E 121°47'0 0.0
2019-Apr-14 01:30N 25°09' E 121°47'0 0.0
2019-Apr-14 01:00N 25°09' E 121°47'0 0.0
2019-Apr-14 00:30N 25°09' E 121°47'0 0.0
2019-Apr-14 00:00N 25°09' E 121°47'0 0.0
2019-Apr-13 23:30N 25°09' E 121°47'0 0.0
2019-Apr-13 23:00N 25°09' E 121°47'0 0.0
2019-Apr-13 22:30N 25°09' E 121°47'0 0.0
2019-Apr-13 22:00N 25°09' E 121°47'0 0.0
2019-Apr-13 21:30N 25°09' E 121°47'0 0.0
2019-Apr-13 21:00N 25°09' E 121°47'0 0.0
2019-Apr-13 20:30N 25°09' E 121°47'0 0.0
2019-Apr-13 20:00N 25°09' E 121°47'0 0.0
2019-Apr-13 19:30N 25°09' E 121°47'0 0.0
2019-Apr-13 19:00N 25°09' E 121°47'0 0.0
2019-Apr-13 18:30N 25°09' E 121°47'0 0.0
2019-Apr-13 18:00N 25°09' E 121°47'0 0.0
2019-Apr-13 17:30N 25°09' E 121°47'0 0.0
2019-Apr-13 17:00N 25°09' E 121°47'0 0.0
2019-Apr-13 16:30N 25°09' E 121°47'0 0.0
2019-Apr-13 15:59N 25°09' E 121°47'0 0.0
2019-Apr-13 15:30N 25°09' E 121°47'0 0.0
2019-Apr-13 15:00N 25°09' E 121°47'0 0.0
2019-Apr-13 14:29N 25°09' E 121°47'0 0.0
2019-Apr-13 14:00N 25°09' E 121°47'0 0.0
2019-Apr-13 13:30N 25°09' E 121°47'0 0.0
2019-Apr-13 13:00N 25°09' E 121°47'0 0.0
2019-Apr-13 12:30N 25°09' E 121°47'0 0.0
2019-Apr-13 12:00N 25°09' E 121°47'0 0.0
2019-Apr-13 11:30N 25°09' E 121°47'0 0.0
2019-Apr-13 11:00N 25°09' E 121°47'0 0.0
2019-Apr-13 10:30N 25°09' E 121°47'0 0.0
2019-Apr-13 09:59N 25°09' E 121°47'0 0.0
2019-Apr-13 09:18N 25°09' E 121°47'0 0.0
2019-Apr-13 09:00N 25°09' E 121°47'0 0.0
2019-Apr-13 08:29N 25°09' E 121°47'0 0.0
2019-Apr-13 07:58N 25°09' E 121°47'0 0.0
2019-Apr-13 07:25N 25°09' E 121°47'0 0.0
2019-Apr-13 06:57N 25°09' E 121°47'0 0.0
2019-Apr-13 06:30N 25°09' E 121°47'0 0.0
2019-Apr-13 06:00N 25°09' E 121°47'0 0.0
2019-Apr-13 05:27N 25°09' E 121°47'0 0.0
2019-Apr-13 05:00N 25°09' E 121°47'0 0.0
2019-Apr-13 04:30N 25°09' E 121°47'0 0.0
2019-Apr-13 03:56N 25°09' E 121°47'0 0.0
2019-Apr-13 03:30N 25°09' E 121°47'0 0.0
2019-Apr-13 03:00N 25°09' E 121°47'0 0.0
2019-Apr-13 02:30N 25°09' E 121°47'0 0.0
2019-Apr-13 02:00N 25°09' E 121°47'0 0.0
2019-Apr-13 01:30N 25°09' E 121°47'0 0.0
2019-Apr-13 01:00N 25°09' E 121°47'0 0.0
2019-Apr-13 00:30N 25°09' E 121°47'0 0.0
2019-Apr-13 00:00N 25°09' E 121°47'0 0.0
2019-Apr-12 23:29N 25°09' E 121°47'0 0.0
2019-Apr-12 23:00N 25°09' E 121°47'0 0.0
2019-Apr-12 22:30N 25°09' E 121°47'0 0.0
2019-Apr-12 22:00N 25°09' E 121°47'0 0.0
2019-Apr-12 21:30N 25°09' E 121°47'0 0.0
2019-Apr-12 21:00N 25°09' E 121°47'0 0.0
2019-Apr-12 20:30N 25°09' E 121°47'0 0.0
2019-Apr-12 20:00N 25°09' E 121°47'0 0.0
2019-Apr-12 19:30N 25°09' E 121°47'0 0.0
2019-Apr-12 19:00N 25°09' E 121°47'0 0.0
2019-Apr-12 18:29N 25°09' E 121°47'0 0.0
2019-Apr-12 18:00N 25°09' E 121°47'0 0.0
2019-Apr-12 17:30N 25°09' E 121°47'0 0.0
2019-Apr-12 17:00N 25°09' E 121°47'0 0.0
2019-Apr-12 16:30N 25°09' E 121°47'0 0.0
2019-Apr-12 16:00N 25°09' E 121°47'0 0.0
2019-Apr-12 15:30N 25°09' E 121°47'0 0.0
2019-Apr-12 15:00N 25°09' E 121°47'0 0.0
2019-Apr-12 14:30N 25°09' E 121°47'0 0.0
2019-Apr-12 14:00N 25°09' E 121°47'0 0.0
2019-Apr-12 13:30N 25°09' E 121°47'0 0.0
2019-Apr-12 13:00N 25°09' E 121°47'0 0.0
2019-Apr-12 12:30N 25°09' E 121°47'0 0.0
2019-Apr-12 12:00N 25°09' E 121°47'0 0.0
2019-Apr-12 11:30N 25°09' E 121°47'0 0.0
2019-Apr-12 10:58N 25°09' E 121°47'0 0.0
2019-Apr-12 10:30N 25°09' E 121°47'0 0.0
2019-Apr-12 10:00N 25°09' E 121°47'0 0.0
2019-Apr-12 09:30N 25°09' E 121°47'1 1.4
2019-Apr-12 09:00N 25°10' E 121°47'3 7.0
2019-Apr-12 08:30N 25°13' E 121°45'1 1.2
2019-Apr-12 08:01N 25°13' E 121°45'1 2.1
2019-Apr-12 07:30N 25°12' E 121°46'1 1.1
2019-Apr-12 07:00N 25°13' E 121°45'0 0.3
2019-Apr-12 06:30N 25°13' E 121°45'0 0.3
2019-Apr-12 05:58N 25°13' E 121°45'0 0.8
2019-Apr-12 05:29N 25°13' E 121°45'0 0.2
2019-Apr-12 05:00N 25°13' E 121°45'1 1.9
2019-Apr-12 04:31N 25°14' E 121°45'1 1.9
2019-Apr-12 04:01N 25°13' E 121°45'0 0.3
2019-Apr-12 03:31N 25°12' E 121°45'0 0.4
2019-Apr-12 03:00N 25°13' E 121°45'0 0.4
2019-Apr-12 02:31N 25°13' E 121°45'2 3.2
2019-Apr-12 02:01N 25°14' E 121°46'2 3.1
2019-Apr-12 01:31N 25°13' E 121°45'3 5.9
2019-Apr-12 01:01N 25°10' E 121°47'1 2.6
2019-Apr-12 00:30N 25°09' E 121°47'0 0.0
2019-Apr-12 00:00N 25°09' E 121°47'0 0.0
2019-Apr-11 23:30N 25°09' E 121°47'0 0.0
2019-Apr-11 23:00N 25°09' E 121°47'0 0.0
2019-Apr-11 22:30N 25°09' E 121°47'0 0.0
2019-Apr-11 22:00N 25°09' E 121°47'0 0.0
2019-Apr-11 21:30N 25°09' E 121°47'0 0.0
2019-Apr-11 21:00N 25°09' E 121°47'0 0.0
2019-Apr-11 20:30N 25°09' E 121°47'0 0.0
2019-Apr-11 20:00N 25°09' E 121°47'0 0.0
2019-Apr-11 19:30N 25°09' E 121°47'0 0.0
2019-Apr-11 19:00N 25°09' E 121°47'0 0.0
2019-Apr-11 18:30N 25°09' E 121°47'0 0.0
2019-Apr-11 17:59N 25°09' E 121°47'0 0.0
2019-Apr-11 17:30N 25°09' E 121°47'0 0.0
2019-Apr-11 17:00N 25°09' E 121°47'0 0.0
2019-Apr-11 16:30N 25°09' E 121°47'0 0.0
2019-Apr-11 16:00N 25°09' E 121°47'0 0.0
2019-Apr-11 15:30N 25°09' E 121°47'0 0.0
2019-Apr-11 15:00N 25°09' E 121°47'0 0.0
2019-Apr-11 14:30N 25°09' E 121°47'0 0.0
2019-Apr-11 14:00N 25°09' E 121°47'0 0.0
2019-Apr-11 13:30N 25°09' E 121°47'0 0.0
2019-Apr-11 13:00N 25°09' E 121°47'0 0.0
2019-Apr-11 12:12N 25°09' E 121°47'0 0.0
2019-Apr-11 11:50N 25°09' E 121°47'0 0.0
2019-Apr-11 11:17N 25°09' E 121°47'0 0.0
2019-Apr-11 10:53N 25°09' E 121°47'0 0.0
2019-Apr-11 10:29N 25°09' E 121°47'0 0.0
2019-Apr-11 09:44N 25°09' E 121°47'0 0.0
2019-Apr-11 09:24N 25°09' E 121°47'1 1.4
2019-Apr-11 09:00N 25°09' E 121°47'4 5.1
2019-Apr-11 08:18N 25°13' E 121°45'0 0.4
2019-Apr-11 07:53N 25°13' E 121°45'410.6
2019-Apr-11 07:30N 25°16' E 121°42'3 3.5
2019-Apr-11 06:47N 25°18' E 121°41'3 9.1
2019-Apr-11 06:29N 25°15' E 121°41'1 1.7
2019-Apr-11 05:42N 25°14' E 121°41'0 0.9
2019-Apr-11 05:22N 25°14' E 121°41'0 0.8
2019-Apr-11 04:58N 25°14' E 121°40'3 6.7
2019-Apr-11 04:29N 25°13' E 121°44'1 1.9
2019-Apr-11 03:49N 25°13' E 121°45'0 0.7
2019-Apr-11 03:23N 25°13' E 121°45'0 0.2
2019-Apr-11 02:59N 25°13' E 121°45'0 0.2
2019-Apr-11 02:25N 25°13' E 121°45'1 1.4
2019-Apr-11 01:58N 25°12' E 121°46'1 2.5
2019-Apr-11 01:26N 25°11' E 121°46'2 3.1
2019-Apr-11 00:39N 25°09' E 121°47'0 0.0
2019-Apr-11 00:22N 25°09' E 121°47'0 0.0
2019-Apr-10 23:58N 25°09' E 121°47'0 0.0
2019-Apr-10 23:27N 25°09' E 121°47'0 0.0
2019-Apr-10 22:47N 25°09' E 121°47'0 0.0
2019-Apr-10 22:29N 25°09' E 121°47'0 0.0
2019-Apr-10 21:46N 25°09' E 121°47'0 0.0
2019-Apr-10 21:28N 25°09' E 121°47'0 0.0
2019-Apr-10 20:46N 25°09' E 121°47'0 0.0
2019-Apr-10 20:25N 25°09' E 121°47'0 0.0
2019-Apr-10 19:59N 25°09' E 121°47'0 0.0
2019-Apr-10 19:28N 25°09' E 121°47'0 0.0
2019-Apr-10 18:53N 25°09' E 121°47'0 0.0
2019-Apr-10 18:28N 25°09' E 121°47'0 0.0
2019-Apr-10 17:58N 25°09' E 121°47'0 0.0
2019-Apr-10 17:28N 25°09' E 121°47'0 0.0
2019-Apr-10 16:52N 25°09' E 121°47'0 0.0
2019-Apr-10 16:26N 25°09' E 121°47'0 0.0
2019-Apr-10 15:44N 25°09' E 121°47'0 0.0
2019-Apr-10 15:27N 25°09' E 121°47'0 0.0
2019-Apr-10 14:58N 25°09' E 121°47'0 0.0
2019-Apr-10 14:28N 25°09' E 121°47'0 0.0
2019-Apr-10 13:52N 25°09' E 121°47'0 0.0
2019-Apr-10 13:22N 25°09' E 121°47'0 0.0
2019-Apr-10 12:45N 25°09' E 121°47'0 0.0
2019-Apr-10 12:22N 25°09' E 121°47'0 0.0
2019-Apr-10 11:57N 25°09' E 121°47'0 0.0
2019-Apr-10 11:27N 25°09' E 121°47'0 0.0
2019-Apr-10 10:59N 25°09' E 121°47'0 0.0
2019-Apr-10 10:18N 25°09' E 121°47'0 0.0
2019-Apr-10 09:58N 25°09' E 121°47'0 0.0
2019-Apr-10 09:27N 25°09' E 121°47'0 0.0
2019-Apr-10 09:00N 25°09' E 121°47'0 0.0
2019-Apr-10 08:21N 25°09' E 121°47'0 0.0
2019-Apr-10 07:56N 25°09' E 121°47'0 0.0
2019-Apr-10 07:30N 25°09' E 121°47'0 0.0
2019-Apr-10 06:57N 25°09' E 121°47'0 0.0
2019-Apr-10 06:27N 25°09' E 121°47'0 0.0
2019-Apr-10 05:54N 25°09' E 121°47'0 0.0
2019-Apr-10 05:28N 25°09' E 121°47'0 0.0
2019-Apr-10 04:52N 25°09' E 121°47'0 0.0
2019-Apr-10 04:20N 25°09' E 121°47'0 0.0
2019-Apr-10 03:57N 25°09' E 121°47'0 0.0
2019-Apr-10 03:26N 25°09' E 121°47'0 0.6
2019-Apr-10 02:54N 25°09' E 121°47'3 5.9
2019-Apr-10 02:28N 25°11' E 121°46'2 2.8
2019-Apr-10 01:51N 25°13' E 121°47'1 2.7
2019-Apr-10 01:25N 25°12' E 121°48'1 1.8
2019-Apr-10 00:58N 25°11' E 121°47'2 4.0
2019-Apr-10 00:26N 25°09' E 121°47'0 0.0
2019-Apr-09 23:50N 25°09' E 121°47'0 0.0
2019-Apr-09 23:29N 25°09' E 121°47'0 0.0
2019-Apr-09 22:58N 25°09' E 121°47'0 0.0
2019-Apr-09 22:11N 25°09' E 121°47'0 0.0
2019-Apr-09 21:56N 25°09' E 121°47'0 0.0
2019-Apr-09 21:25N 25°09' E 121°47'0 0.0
2019-Apr-09 20:57N 25°09' E 121°47'0 0.0
2019-Apr-09 20:28N 25°09' E 121°47'0 0.0
2019-Apr-09 19:51N 25°09' E 121°47'0 0.0
2019-Apr-09 19:26N 25°09' E 121°47'0 0.0
2019-Apr-09 18:54N 25°09' E 121°47'0 0.0
2019-Apr-09 18:29N 25°09' E 121°47'0 0.0
2019-Apr-09 18:00N 25°09' E 121°47'0 0.0
2019-Apr-09 17:31N 25°09' E 121°47'0 0.0
2019-Apr-09 17:00N 25°09' E 121°47'0 0.0
2019-Apr-09 16:31N 25°09' E 121°47'0 0.0
2019-Apr-09 16:00N 25°09' E 121°47'0 0.0
2019-Apr-09 15:30N 25°09' E 121°47'0 0.0
2019-Apr-09 15:00N 25°09' E 121°47'0 0.0
2019-Apr-09 14:31N 25°09' E 121°47'0 0.0
2019-Apr-09 14:01N 25°09' E 121°47'0 0.0
2019-Apr-09 13:30N 25°09' E 121°47'0 0.0
2019-Apr-09 13:00N 25°09' E 121°47'0 0.0
2019-Apr-09 12:31N 25°09' E 121°47'0 0.0
2019-Apr-09 12:01N 25°09' E 121°47'0 0.0
2019-Apr-09 11:30N 25°09' E 121°47'0 0.0
2019-Apr-09 11:01N 25°09' E 121°47'0 0.0
2019-Apr-09 10:30N 25°09' E 121°47'0 0.0
2019-Apr-09 10:01N 25°09' E 121°47'0 0.0
2019-Apr-09 09:31N 25°09' E 121°47'0 0.0
2019-Apr-09 09:00N 25°09' E 121°47'0 0.0
2019-Apr-09 08:30N 25°09' E 121°47'0 0.0
2019-Apr-09 08:00N 25°09' E 121°47'0 0.0
2019-Apr-09 07:30N 25°09' E 121°47'0 0.0
2019-Apr-09 07:01N 25°09' E 121°47'0 0.0
2019-Apr-09 06:30N 25°09' E 121°47'0 0.0
2019-Apr-09 06:01N 25°09' E 121°47'0 0.0
2019-Apr-09 05:31N 25°09' E 121°47'0 0.0
2019-Apr-09 05:01N 25°09' E 121°47'0 0.0
2019-Apr-09 04:31N 25°09' E 121°47'0 0.0
2019-Apr-09 03:56N 25°09' E 121°47'0 0.0
2019-Apr-09 03:30N 25°09' E 121°47'6 7.8
2019-Apr-09 02:46N 25°09' E 121°54'310.4
2019-Apr-09 02:30N 25°08' E 121°57'910.6
2019-Apr-09 01:39N 25°00' E 122°01'  
Track history (hours):
 
Tides and Currents Weather Stations Pressure Air Temp Water Temp Dewpoint Dewpoint Depression Visibility Wind Speed Wind Dir Waves Ship Positions

Oceanographic research ship ()

Last reported at 2019-Apr-18 20:00 UTC. Time now 2019-Apr-18 20:19 UTC.
Position N 25°09' E 121°47'.

Length 39 m; draft 2.8 m.

Type: Pleasure craft. MMSI: 416922000.

Date/timePositionNaut miles runAvg speedWind from/ knotsBaromVisibWave heightAir tempDewpointWater temp
2019-Apr-18 20:00N 25°09' E 121°47'0 0.0
2019-Apr-18 19:30N 25°09' E 121°47'0 0.0
2019-Apr-18 19:00N 25°09' E 121°47'0 0.0
2019-Apr-18 18:30N 25°09' E 121°47'0 0.0
2019-Apr-18 18:00N 25°09' E 121°47'0 0.0
2019-Apr-18 17:30N 25°09' E 121°47'0 0.0
2019-Apr-18 17:00N 25°09' E 121°47'0 0.0
2019-Apr-18 16:30N 25°09' E 121°47'0 0.0
2019-Apr-18 16:00N 25°09' E 121°47'0 0.0
2019-Apr-18 15:30N 25°09' E 121°47'0 0.0
2019-Apr-18 15:00N 25°09' E 121°47'0 0.0
2019-Apr-18 14:30N 25°09' E 121°47'0 0.0
2019-Apr-18 14:00N 25°09' E 121°47'0 0.0
2019-Apr-18 13:27N 25°09' E 121°47'0 0.0
2019-Apr-18 12:57N 25°09' E 121°47'0 0.0
2019-Apr-18 12:30N 25°09' E 121°47'0 0.0
2019-Apr-18 12:00N 25°09' E 121°47'0 0.0
2019-Apr-18 11:30N 25°09' E 121°47'0 0.0
2019-Apr-18 10:58N 25°09' E 121°47'0 0.0
2019-Apr-18 10:30N 25°09' E 121°47'0 0.0
2019-Apr-18 10:00N 25°09' E 121°47'0 0.0
2019-Apr-18 09:30N 25°09' E 121°47'0 0.0
2019-Apr-18 09:00N 25°09' E 121°47'0 0.0
2019-Apr-18 08:30N 25°09' E 121°47'0 0.0
2019-Apr-18 07:47N 25°09' E 121°47'0 0.0
2019-Apr-18 07:30N 25°09' E 121°47'0 0.0
2019-Apr-18 06:59N 25°09' E 121°47'0 0.0
2019-Apr-18 06:30N 25°09' E 121°47'3 6.8
2019-Apr-18 06:00N 25°12' E 121°45'918.1
2019-Apr-18 05:29N 25°18' E 121°38'15 4.9
2019-Apr-18 02:25N 25°13' E 121°23'4 1.2
2019-Apr-17 23:34N 25°10' E 121°21'1 4.7
2019-Apr-17 23:26N 25°10' E 121°21'1 0.8
2019-Apr-17 22:38N 25°10' E 121°21'1 1.3
2019-Apr-17 21:53N 25°10' E 121°22'3 1.2
2019-Apr-17 19:22N 25°13' E 121°22'1 1.5
2019-Apr-17 18:42N 25°13' E 121°23'3 5.6
2019-Apr-17 18:07N 25°15' E 121°25'1 7.6
2019-Apr-17 17:57N 25°16' E 121°26'3 7.0
2019-Apr-17 17:30N 25°19' E 121°29'3 5.5
2019-Apr-17 16:57N 25°20' E 121°32'5 5.3
2019-Apr-17 15:59N 25°19' E 121°37'4 6.2
2019-Apr-17 15:24N 25°17' E 121°40'3 7.5
2019-Apr-17 14:57N 25°15' E 121°43'3 7.8
2019-Apr-17 14:30N 25°12' E 121°45'3 6.8
2019-Apr-17 14:01N 25°09' E 121°47'0 0.1
2019-Apr-17 13:30N 25°09' E 121°47'0 0.0
2019-Apr-17 13:00N 25°09' E 121°47'0 0.0
2019-Apr-17 12:30N 25°09' E 121°47'0 0.0
2019-Apr-17 12:00N 25°09' E 121°47'0 0.0
2019-Apr-17 11:30N 25°09' E 121°47'0 0.0
2019-Apr-17 11:00N 25°09' E 121°47'0 0.0
2019-Apr-17 10:30N 25°09' E 121°47'0 0.0
2019-Apr-17 10:00N 25°09' E 121°47'0 0.0
2019-Apr-17 09:30N 25°09' E 121°47'0 0.0
2019-Apr-17 09:00N 25°09' E 121°47'0 0.0
2019-Apr-17 08:30N 25°09' E 121°47'0 0.0
2019-Apr-17 08:00N 25°09' E 121°47'0 0.0
2019-Apr-17 07:30N 25°09' E 121°47'0 0.0
2019-Apr-17 07:00N 25°09' E 121°47'0 0.0
2019-Apr-17 06:30N 25°09' E 121°47'0 0.0
2019-Apr-17 06:00N 25°09' E 121°47'1 2.3
2019-Apr-17 05:30N 25°09' E 121°48'4 8.2
2019-Apr-17 05:00N 25°09' E 121°53'4 6.5
2019-Apr-17 04:24N 25°08' E 121°57'8 6.7
2019-Apr-17 03:10N 25°01' E 122°02'1 6.6
2019-Apr-17 03:00N 24°59' E 122°02'11 0.5
2019-Apr-16 05:36N 24°50' E 122°09'1 4.8
2019-Apr-16 05:25N 24°50' E 122°10'0 0.3
2019-Apr-16 04:02N 24°50' E 122°11'1 8.9
2019-Apr-16 03:57N 24°50' E 122°10'13 0.5
2019-Apr-15 02:16N 25°01' E 122°02'510.2
2019-Apr-15 01:46N 25°05' E 121°60'410.6
2019-Apr-15 01:26N 25°08' E 121°57'5 9.5
2019-Apr-15 00:54N 25°10' E 121°52'3 8.7
2019-Apr-15 00:31N 25°09' E 121°48'1 1.4
2019-Apr-15 00:00N 25°09' E 121°47'0 0.0
2019-Apr-14 23:30N 25°09' E 121°47'0 0.0
2019-Apr-14 23:00N 25°09' E 121°47'0 0.0
2019-Apr-14 22:30N 25°09' E 121°47'0 0.0
2019-Apr-14 22:00N 25°09' E 121°47'0 0.0
2019-Apr-14 21:30N 25°09' E 121°47'0 0.0
2019-Apr-14 21:00N 25°09' E 121°47'0 0.0
2019-Apr-14 20:30N 25°09' E 121°47'0 0.0
2019-Apr-14 20:00N 25°09' E 121°47'0 0.0
2019-Apr-14 19:30N 25°09' E 121°47'0 0.0
2019-Apr-14 19:00N 25°09' E 121°47'0 0.0
2019-Apr-14 18:30N 25°09' E 121°47'0 0.0
2019-Apr-14 18:00N 25°09' E 121°47'0 0.0
2019-Apr-14 17:30N 25°09' E 121°47'0 0.0
2019-Apr-14 17:00N 25°09' E 121°47'0 0.0
2019-Apr-14 16:28N 25°09' E 121°47'0 0.0
2019-Apr-14 16:00N 25°09' E 121°47'0 0.0
2019-Apr-14 15:30N 25°09' E 121°47'0 0.0
2019-Apr-14 15:00N 25°09' E 121°47'0 0.0
2019-Apr-14 14:30N 25°09' E 121°47'0 0.0
2019-Apr-14 14:00N 25°09' E 121°47'0 0.0
2019-Apr-14 13:30N 25°09' E 121°47'0 0.0
2019-Apr-14 13:00N 25°09' E 121°47'0 0.0
2019-Apr-14 12:30N 25°09' E 121°47'0 0.0
2019-Apr-14 11:59N 25°09' E 121°47'0 0.0
2019-Apr-14 11:30N 25°09' E 121°47'0 0.0
2019-Apr-14 11:00N 25°09' E 121°47'0 0.0
2019-Apr-14 10:30N 25°09' E 121°47'0 0.0
2019-Apr-14 10:00N 25°09' E 121°47'0 0.0
2019-Apr-14 09:30N 25°09' E 121°47'0 0.0
2019-Apr-14 08:57N 25°09' E 121°47'0 0.0
2019-Apr-14 08:30N 25°09' E 121°47'0 0.0
2019-Apr-14 08:00N 25°09' E 121°47'0 0.0
2019-Apr-14 07:30N 25°09' E 121°47'0 0.0
2019-Apr-14 07:00N 25°09' E 121°47'0 0.0
2019-Apr-14 06:30N 25°09' E 121°47'0 0.0
2019-Apr-14 06:00N 25°09' E 121°47'0 0.0
2019-Apr-14 05:29N 25°09' E 121°47'0 0.0
2019-Apr-14 05:00N 25°09' E 121°47'0 0.0
2019-Apr-14 04:30N 25°09' E 121°47'0 0.0
2019-Apr-14 03:59N 25°09' E 121°47'0 0.0
2019-Apr-14 03:30N 25°09' E 121°47'0 0.0
2019-Apr-14 03:00N 25°09' E 121°47'0 0.0
2019-Apr-14 02:30N 25°09' E 121°47'0 0.0
2019-Apr-14 02:00N 25°09' E 121°47'0 0.0
2019-Apr-14 01:30N 25°09' E 121°47'0 0.0
2019-Apr-14 01:00N 25°09' E 121°47'0 0.0
2019-Apr-14 00:30N 25°09' E 121°47'0 0.0
2019-Apr-14 00:00N 25°09' E 121°47'0 0.0
2019-Apr-13 23:30N 25°09' E 121°47'0 0.0
2019-Apr-13 23:00N 25°09' E 121°47'0 0.0
2019-Apr-13 22:30N 25°09' E 121°47'0 0.0
2019-Apr-13 22:00N 25°09' E 121°47'0 0.0
2019-Apr-13 21:30N 25°09' E 121°47'0 0.0
2019-Apr-13 21:00N 25°09' E 121°47'0 0.0
2019-Apr-13 20:30N 25°09' E 121°47'0 0.0
2019-Apr-13 20:00N 25°09' E 121°47'0 0.0
2019-Apr-13 19:30N 25°09' E 121°47'0 0.0
2019-Apr-13 19:00N 25°09' E 121°47'0 0.0
2019-Apr-13 18:30N 25°09' E 121°47'0 0.0
2019-Apr-13 18:00N 25°09' E 121°47'0 0.0
2019-Apr-13 17:30N 25°09' E 121°47'0 0.0
2019-Apr-13 17:00N 25°09' E 121°47'0 0.0
2019-Apr-13 16:30N 25°09' E 121°47'0 0.0
2019-Apr-13 15:59N 25°09' E 121°47'0 0.0
2019-Apr-13 15:30N 25°09' E 121°47'0 0.0
2019-Apr-13 15:00N 25°09' E 121°47'0 0.0
2019-Apr-13 14:29N 25°09' E 121°47'0 0.0
2019-Apr-13 14:00N 25°09' E 121°47'0 0.0
2019-Apr-13 13:30N 25°09' E 121°47'0 0.0
2019-Apr-13 13:00N 25°09' E 121°47'0 0.0
2019-Apr-13 12:30N 25°09' E 121°47'0 0.0
2019-Apr-13 12:00N 25°09' E 121°47'0 0.0
2019-Apr-13 11:30N 25°09' E 121°47'0 0.0
2019-Apr-13 11:00N 25°09' E 121°47'0 0.0
2019-Apr-13 10:30N 25°09' E 121°47'0 0.0
2019-Apr-13 09:59N 25°09' E 121°47'0 0.0
2019-Apr-13 09:18N 25°09' E 121°47'0 0.0
2019-Apr-13 09:00N 25°09' E 121°47'0 0.0
2019-Apr-13 08:29N 25°09' E 121°47'0 0.0
2019-Apr-13 07:58N 25°09' E 121°47'0 0.0
2019-Apr-13 07:25N 25°09' E 121°47'0 0.0
2019-Apr-13 06:57N 25°09' E 121°47'0 0.0
2019-Apr-13 06:30N 25°09' E 121°47'0 0.0
2019-Apr-13 06:00N 25°09' E 121°47'0 0.0
2019-Apr-13 05:27N 25°09' E 121°47'0 0.0
2019-Apr-13 05:00N 25°09' E 121°47'0 0.0
2019-Apr-13 04:30N 25°09' E 121°47'0 0.0
2019-Apr-13 03:56N 25°09' E 121°47'0 0.0
2019-Apr-13 03:30N 25°09' E 121°47'0 0.0
2019-Apr-13 03:00N 25°09' E 121°47'0 0.0
2019-Apr-13 02:30N 25°09' E 121°47'0 0.0
2019-Apr-13 02:00N 25°09' E 121°47'0 0.0
2019-Apr-13 01:30N 25°09' E 121°47'0 0.0
2019-Apr-13 01:00N 25°09' E 121°47'0 0.0
2019-Apr-13 00:30N 25°09' E 121°47'0 0.0
2019-Apr-13 00:00N 25°09' E 121°47'0 0.0
2019-Apr-12 23:29N 25°09' E 121°47'0 0.0
2019-Apr-12 23:00N 25°09' E 121°47'0 0.0
2019-Apr-12 22:30N 25°09' E 121°47'0 0.0
2019-Apr-12 22:00N 25°09' E 121°47'0 0.0
2019-Apr-12 21:30N 25°09' E 121°47'0 0.0
2019-Apr-12 21:00N 25°09' E 121°47'0 0.0
2019-Apr-12 20:30N 25°09' E 121°47'0 0.0
2019-Apr-12 20:00N 25°09' E 121°47'0 0.0
2019-Apr-12 19:30N 25°09' E 121°47'0 0.0
2019-Apr-12 19:00N 25°09' E 121°47'0 0.0
2019-Apr-12 18:29N 25°09' E 121°47'0 0.0
2019-Apr-12 18:00N 25°09' E 121°47'0 0.0
2019-Apr-12 17:30N 25°09' E 121°47'0 0.0
2019-Apr-12 17:00N 25°09' E 121°47'0 0.0
2019-Apr-12 16:30N 25°09' E 121°47'0 0.0
2019-Apr-12 16:00N 25°09' E 121°47'0 0.0
2019-Apr-12 15:30N 25°09' E 121°47'0 0.0
2019-Apr-12 15:00N 25°09' E 121°47'0 0.0
2019-Apr-12 14:30N 25°09' E 121°47'0 0.0
2019-Apr-12 14:00N 25°09' E 121°47'0 0.0
2019-Apr-12 13:30N 25°09' E 121°47'0 0.0
2019-Apr-12 13:00N 25°09' E 121°47'0 0.0
2019-Apr-12 12:30N 25°09' E 121°47'0 0.0
2019-Apr-12 12:00N 25°09' E 121°47'0 0.0
2019-Apr-12 11:30N 25°09' E 121°47'0 0.0
2019-Apr-12 10:58N 25°09' E 121°47'0 0.0
2019-Apr-12 10:30N 25°09' E 121°47'0 0.0
2019-Apr-12 10:00N 25°09' E 121°47'0 0.0
2019-Apr-12 09:30N 25°09' E 121°47'1 1.4
2019-Apr-12 09:00N 25°10' E 121°47'3 7.0
2019-Apr-12 08:30N 25°13' E 121°45'1 1.2
2019-Apr-12 08:01N 25°13' E 121°45'1 2.1
2019-Apr-12 07:30N 25°12' E 121°46'1 1.1
2019-Apr-12 07:00N 25°13' E 121°45'0 0.3
2019-Apr-12 06:30N 25°13' E 121°45'0 0.3
2019-Apr-12 05:58N 25°13' E 121°45'0 0.8
2019-Apr-12 05:29N 25°13' E 121°45'0 0.2
2019-Apr-12 05:00N 25°13' E 121°45'1 1.9
2019-Apr-12 04:31N 25°14' E 121°45'1 1.9
2019-Apr-12 04:01N 25°13' E 121°45'0 0.3
2019-Apr-12 03:31N 25°12' E 121°45'0 0.4
2019-Apr-12 03:00N 25°13' E 121°45'0 0.4
2019-Apr-12 02:31N 25°13' E 121°45'2 3.2
2019-Apr-12 02:01N 25°14' E 121°46'2 3.1
2019-Apr-12 01:31N 25°13' E 121°45'3 5.9
2019-Apr-12 01:01N 25°10' E 121°47'1 2.6
2019-Apr-12 00:30N 25°09' E 121°47'0 0.0
2019-Apr-12 00:00N 25°09' E 121°47'0 0.0
2019-Apr-11 23:30N 25°09' E 121°47'0 0.0
2019-Apr-11 23:00N 25°09' E 121°47'0 0.0
2019-Apr-11 22:30N 25°09' E 121°47'0 0.0
2019-Apr-11 22:00N 25°09' E 121°47'0 0.0
2019-Apr-11 21:30N 25°09' E 121°47'0 0.0
2019-Apr-11 21:00N 25°09' E 121°47'0 0.0
2019-Apr-11 20:30N 25°09' E 121°47'0 0.0
2019-Apr-11 20:00N 25°09' E 121°47'0 0.0
2019-Apr-11 19:30N 25°09' E 121°47'0 0.0
2019-Apr-11 19:00N 25°09' E 121°47'0 0.0
2019-Apr-11 18:30N 25°09' E 121°47'0 0.0
2019-Apr-11 17:59N 25°09' E 121°47'0 0.0
2019-Apr-11 17:30N 25°09' E 121°47'0 0.0
2019-Apr-11 17:00N 25°09' E 121°47'0 0.0
2019-Apr-11 16:30N 25°09' E 121°47'0 0.0
2019-Apr-11 16:00N 25°09' E 121°47'0 0.0
2019-Apr-11 15:30N 25°09' E 121°47'0 0.0
2019-Apr-11 15:00N 25°09' E 121°47'0 0.0
2019-Apr-11 14:30N 25°09' E 121°47'0 0.0
2019-Apr-11 14:00N 25°09' E 121°47'0 0.0
2019-Apr-11 13:30N 25°09' E 121°47'0 0.0
2019-Apr-11 13:00N 25°09' E 121°47'0 0.0
2019-Apr-11 12:12N 25°09' E 121°47'0 0.0
2019-Apr-11 11:50N 25°09' E 121°47'0 0.0
2019-Apr-11 11:17N 25°09' E 121°47'0 0.0
2019-Apr-11 10:53N 25°09' E 121°47'0 0.0
2019-Apr-11 10:29N 25°09' E 121°47'0 0.0
2019-Apr-11 09:44N 25°09' E 121°47'0 0.0
2019-Apr-11 09:24N 25°09' E 121°47'1 1.4
2019-Apr-11 09:00N 25°09' E 121°47'4 5.1
2019-Apr-11 08:18N 25°13' E 121°45'0 0.4
2019-Apr-11 07:53N 25°13' E 121°45'410.6
2019-Apr-11 07:30N 25°16' E 121°42'3 3.5
2019-Apr-11 06:47N 25°18' E 121°41'3 9.1
2019-Apr-11 06:29N 25°15' E 121°41'1 1.7
2019-Apr-11 05:42N 25°14' E 121°41'0 0.9
2019-Apr-11 05:22N 25°14' E 121°41'0 0.8
2019-Apr-11 04:58N 25°14' E 121°40'3 6.7
2019-Apr-11 04:29N 25°13' E 121°44'1 1.9
2019-Apr-11 03:49N 25°13' E 121°45'0 0.7
2019-Apr-11 03:23N 25°13' E 121°45'0 0.2
2019-Apr-11 02:59N 25°13' E 121°45'0 0.2
2019-Apr-11 02:25N 25°13' E 121°45'1 1.4
2019-Apr-11 01:58N 25°12' E 121°46'1 2.5
2019-Apr-11 01:26N 25°11' E 121°46'2 3.1
2019-Apr-11 00:39N 25°09' E 121°47'0 0.0
2019-Apr-11 00:22N 25°09' E 121°47'0 0.0
2019-Apr-10 23:58N 25°09' E 121°47'0 0.0
2019-Apr-10 23:27N 25°09' E 121°47'0 0.0
2019-Apr-10 22:47N 25°09' E 121°47'0 0.0
2019-Apr-10 22:29N 25°09' E 121°47'0 0.0
2019-Apr-10 21:46N 25°09' E 121°47'0 0.0
2019-Apr-10 21:28N 25°09' E 121°47'0 0.0
2019-Apr-10 20:46N 25°09' E 121°47'0 0.0
2019-Apr-10 20:25N 25°09' E 121°47'0 0.0
2019-Apr-10 19:59N 25°09' E 121°47'0 0.0
2019-Apr-10 19:28N 25°09' E 121°47'0 0.0
2019-Apr-10 18:53N 25°09' E 121°47'0 0.0
2019-Apr-10 18:28N 25°09' E 121°47'0 0.0
2019-Apr-10 17:58N 25°09' E 121°47'0 0.0
2019-Apr-10 17:28N 25°09' E 121°47'0 0.0
2019-Apr-10 16:52N 25°09' E 121°47'0 0.0
2019-Apr-10 16:26N 25°09' E 121°47'0 0.0
2019-Apr-10 15:44N 25°09' E 121°47'0 0.0
2019-Apr-10 15:27N 25°09' E 121°47'0 0.0
2019-Apr-10 14:58N 25°09' E 121°47'0 0.0
2019-Apr-10 14:28N 25°09' E 121°47'0 0.0
2019-Apr-10 13:52N 25°09' E 121°47'0 0.0
2019-Apr-10 13:22N 25°09' E 121°47'0 0.0
2019-Apr-10 12:45N 25°09' E 121°47'0 0.0
2019-Apr-10 12:22N 25°09' E 121°47'0 0.0
2019-Apr-10 11:57N 25°09' E 121°47'0 0.0
2019-Apr-10 11:27N 25°09' E 121°47'0 0.0
2019-Apr-10 10:59N 25°09' E 121°47'0 0.0
2019-Apr-10 10:18N 25°09' E 121°47'0 0.0
2019-Apr-10 09:58N 25°09' E 121°47'0 0.0
2019-Apr-10 09:27N 25°09' E 121°47'0 0.0
2019-Apr-10 09:00N 25°09' E 121°47'0 0.0
2019-Apr-10 08:21N 25°09' E 121°47'0 0.0
2019-Apr-10 07:56N 25°09' E 121°47'0 0.0
2019-Apr-10 07:30N 25°09' E 121°47'0 0.0
2019-Apr-10 06:57N 25°09' E 121°47'0 0.0
2019-Apr-10 06:27N 25°09' E 121°47'0 0.0
2019-Apr-10 05:54N 25°09' E 121°47'0 0.0
2019-Apr-10 05:28N 25°09' E 121°47'0 0.0
2019-Apr-10 04:52N 25°09' E 121°47'0 0.0
2019-Apr-10 04:20N 25°09' E 121°47'0 0.0
2019-Apr-10 03:57N 25°09' E 121°47'0 0.0
2019-Apr-10 03:26N 25°09' E 121°47'0 0.6
2019-Apr-10 02:54N 25°09' E 121°47'3 5.9
2019-Apr-10 02:28N 25°11' E 121°46'2 2.8
2019-Apr-10 01:51N 25°13' E 121°47'1 2.7
2019-Apr-10 01:25N 25°12' E 121°48'1 1.8
2019-Apr-10 00:58N 25°11' E 121°47'2 4.0
2019-Apr-10 00:26N 25°09' E 121°47'0 0.0
2019-Apr-09 23:50N 25°09' E 121°47'0 0.0
2019-Apr-09 23:29N 25°09' E 121°47'0 0.0
2019-Apr-09 22:58N 25°09' E 121°47'0 0.0
2019-Apr-09 22:11N 25°09' E 121°47'0 0.0
2019-Apr-09 21:56N 25°09' E 121°47'0 0.0
2019-Apr-09 21:25N 25°09' E 121°47'0 0.0
2019-Apr-09 20:57N 25°09' E 121°47'0 0.0
2019-Apr-09 20:28N 25°09' E 121°47'0 0.0
2019-Apr-09 19:51N 25°09' E 121°47'0 0.0
2019-Apr-09 19:26N 25°09' E 121°47'0 0.0
2019-Apr-09 18:54N 25°09' E 121°47'0 0.0
2019-Apr-09 18:29N 25°09' E 121°47'0 0.0
2019-Apr-09 18:00N 25°09' E 121°47'0 0.0
2019-Apr-09 17:31N 25°09' E 121°47'0 0.0
2019-Apr-09 17:00N 25°09' E 121°47'0 0.0
2019-Apr-09 16:31N 25°09' E 121°47'0 0.0
2019-Apr-09 16:00N 25°09' E 121°47'0 0.0
2019-Apr-09 15:30N 25°09' E 121°47'0 0.0
2019-Apr-09 15:00N 25°09' E 121°47'0 0.0
2019-Apr-09 14:31N 25°09' E 121°47'0 0.0
2019-Apr-09 14:01N 25°09' E 121°47'0 0.0
2019-Apr-09 13:30N 25°09' E 121°47'0 0.0
2019-Apr-09 13:00N 25°09' E 121°47'0 0.0
2019-Apr-09 12:31N 25°09' E 121°47'0 0.0
2019-Apr-09 12:01N 25°09' E 121°47'0 0.0
2019-Apr-09 11:30N 25°09' E 121°47'0 0.0
2019-Apr-09 11:01N 25°09' E 121°47'0 0.0
2019-Apr-09 10:30N 25°09' E 121°47'0 0.0
2019-Apr-09 10:01N 25°09' E 121°47'0 0.0
2019-Apr-09 09:31N 25°09' E 121°47'0 0.0
2019-Apr-09 09:00N 25°09' E 121°47'0 0.0
2019-Apr-09 08:30N 25°09' E 121°47'0 0.0
2019-Apr-09 08:00N 25°09' E 121°47'0 0.0
2019-Apr-09 07:30N 25°09' E 121°47'0 0.0
2019-Apr-09 07:01N 25°09' E 121°47'0 0.0
2019-Apr-09 06:30N 25°09' E 121°47'0 0.0
2019-Apr-09 06:01N 25°09' E 121°47'0 0.0
2019-Apr-09 05:31N 25°09' E 121°47'0 0.0
2019-Apr-09 05:01N 25°09' E 121°47'0 0.0
2019-Apr-09 04:31N 25°09' E 121°47'0 0.0
2019-Apr-09 03:56N 25°09' E 121°47'0 0.0
2019-Apr-09 03:30N 25°09' E 121°47'6 7.8
2019-Apr-09 02:46N 25°09' E 121°54'310.4
2019-Apr-09 02:30N 25°08' E 121°57'910.6
2019-Apr-09 01:39N 25°00' E 122°01'  

Dump ship's entire track history